Time;durP1;ratioP1;P1;durP2;ratioP2;P2;SDS_P1;SDS_P2;PMS_P1;PMS_P2;Temp;Humidity;BMP_temperature;BMP_pressure;BME280_temperature;BME280_humidity;BME280_pressure;Samples;Min_cycle;Max_cycle;Signal;HPM_P1;HPM_P2
2020/12/16 00:02:00;;;;;;;20.02;14.38;;;7.90;99.90;;;;;;5051354;28;20044;-43
2020/12/16 00:04:25;;;;;;;21.13;14.45;;;7.90;99.90;;;;;;5046166;28;20108;-52
2020/12/16 00:06:51;;;;;;;18.38;15.48;;;7.80;99.90;;;;;;5050224;28;20107;-44
2020/12/16 00:09:16;;;;;;;18.67;13.70;;;7.80;99.90;;;;;;5050863;28;20039;-44
2020/12/16 00:11:42;;;;;;;17.00;12.82;;;7.80;99.90;;;;;;5050882;28;20033;-44
2020/12/16 00:14:07;;;;;;;23.65;16.05;;;7.80;99.90;;;;;;5050737;28;20104;-43
2020/12/16 00:16:33;;;;;;;22.40;16.48;;;7.80;99.90;;;;;;5047835;28;20037;-45
2020/12/16 00:18:59;;;;;;;23.88;15.38;;;7.80;99.90;;;;;;5050427;28;20479;-44
2020/12/16 00:21:24;;;;;;;22.02;15.18;;;7.80;99.90;;;;;;5050628;28;20021;-44
2020/12/16 00:23:50;;;;;;;24.00;16.25;;;7.80;99.90;;;;;;5050441;28;20389;-45
2020/12/16 00:26:16;;;;;;;23.88;16.15;;;7.80;99.90;;;;;;5047675;28;20033;-44
2020/12/16 00:28:41;;;;;;;23.77;16.92;;;7.80;99.90;;;;;;5050274;28;20032;-44
2020/12/16 00:31:08;;;;;;;20.67;14.88;;;7.80;99.90;;;;;;5049551;28;20286;-44
2020/12/16 00:33:34;;;;;;;20.65;15.02;;;7.80;99.90;;;;;;5042650;28;20490;-44
2020/12/16 00:36:00;;;;;;;24.02;14.77;;;7.80;99.90;;;;;;5049827;28;20025;-43
2020/12/16 00:38:26;;;;;;;22.35;15.57;;;7.80;99.90;;;;;;5049973;28;20553;-44
2020/12/16 00:40:51;;;;;;;22.17;14.35;;;7.80;99.90;;;;;;5050838;28;20017;-44
2020/12/16 00:43:17;;;;;;;17.17;13.43;;;7.80;99.90;;;;;;5050712;28;20029;-43
2020/12/16 00:45:42;;;;;;;21.52;15.50;;;7.70;99.90;;;;;;5050655;28;20033;-46
2020/12/16 00:48:08;;;;;;;22.27;15.85;;;7.80;99.90;;;;;;5032672;28;20033;-44
2020/12/16 00:50:33;;;;;;;22.27;15.40;;;7.80;99.90;;;;;;5050517;28;20029;-44
2020/12/16 00:53:00;;;;;;;24.55;16.05;;;7.80;99.90;;;;;;5050366;28;20061;-43
2020/12/16 00:55:25;;;;;;;21.75;15.73;;;7.80;99.90;;;;;;5050721;28;20446;-46
2020/12/16 00:57:51;;;;;;;25.00;15.80;;;7.80;99.90;;;;;;5050615;28;20121;-44
2020/12/16 01:00:17;;;;;;;22.60;15.77;;;7.80;99.90;;;;;;5050406;28;20029;-43
2020/12/16 01:02:44;;;;;;;20.15;15.02;;;7.80;99.90;;;;;;5043686;28;20083;-44
2020/12/16 01:05:10;;;;;;;23.80;16.58;;;7.80;99.90;;;;;;5044797;28;20021;-43
2020/12/16 01:07:39;;;;;;;22.13;14.82;;;7.80;99.90;;;;;;5045141;28;20021;-45
2020/12/16 01:10:05;;;;;;;20.27;14.65;;;7.80;99.90;;;;;;5048367;28;20044;-44
2020/12/16 01:12:30;;;;;;;19.50;13.52;;;7.70;99.90;;;;;;5035133;28;20052;-46
2020/12/16 01:14:56;;;;;;;20.52;15.07;;;7.70;99.90;;;;;;5049883;28;20471;-45
2020/12/16 01:17:22;;;;;;;18.63;14.18;;;7.70;99.90;;;;;;5049831;28;20392;-45
2020/12/16 01:19:47;;;;;;;20.67;14.38;;;7.70;99.90;;;;;;5045418;28;20323;-45
2020/12/16 01:22:13;;;;;;;20.23;13.10;;;7.70;99.90;;;;;;5050251;28;20029;-44
2020/12/16 01:24:38;;;;;;;22.05;15.00;;;7.70;99.90;;;;;;5049549;28;20041;-47
2020/12/16 01:27:04;;;;;;;25.02;16.63;;;7.70;99.90;;;;;;5036034;28;20032;-44
2020/12/16 01:29:29;;;;;;;24.50;15.32;;;7.70;99.90;;;;;;5037559;28;20057;-45
2020/12/16 01:31:55;;;;;;;23.67;14.00;;;7.70;99.90;;;;;;5047001;28;20414;-44
2020/12/16 01:34:21;;;;;;;22.15;15.60;;;7.70;99.90;;;;;;5049115;28;20029;-43
2020/12/16 01:36:48;;;;;;;22.30;14.70;;;7.70;99.90;;;;;;5048517;28;20028;-45
2020/12/16 01:39:14;;;;;;;20.05;14.43;;;7.70;99.90;;;;;;5046621;28;20045;-44
2020/12/16 01:41:46;;;;;;;21.42;14.55;;;7.70;99.90;;;;;;5044206;28;20029;-45
2020/12/16 01:44:17;;;;;;;22.63;14.95;;;7.70;99.90;;;;;;5048975;28;20037;-44
2020/12/16 01:46:55;;;;;;;23.63;15.85;;;7.70;99.90;;;;;;5048949;28;20086;-45
2020/12/16 01:49:22;;;;;;;25.10;14.98;;;7.70;99.90;;;;;;5048757;28;20368;-45
2020/12/16 01:51:55;;;;;;;23.33;15.32;;;7.70;99.90;;;;;;5049159;28;20029;-45
2020/12/16 01:54:22;;;;;;;23.13;15.52;;;7.70;99.90;;;;;;5048891;28;20074;-47
2020/12/16 01:56:54;;;;;;;20.58;14.27;;;7.70;99.90;;;;;;5048486;28;20025;-44
2020/12/16 01:59:20;;;;;;;23.33;13.98;;;7.60;99.90;;;;;;5045516;28;20036;-46
2020/12/16 02:01:51;;;;;;;26.33;14.93;;;7.70;99.90;;;;;;5046230;28;20071;-45
2020/12/16 02:04:25;;;;;;;23.77;14.40;;;7.70;99.90;;;;;;5045629;28;20032;-43
2020/12/16 02:06:51;;;;;;;19.75;13.27;;;7.70;99.90;;;;;;5048131;28;20033;-44
2020/12/16 02:09:19;;;;;;;23.17;15.27;;;7.60;99.90;;;;;;5047707;28;20659;-45
2020/12/16 02:11:45;;;;;;;24.98;16.02;;;7.60;99.90;;;;;;5048158;28;20398;-45
2020/12/16 02:14:11;;;;;;;21.58;13.82;;;7.60;99.90;;;;;;5047676;28;20029;-46
2020/12/16 02:16:38;;;;;;;24.77;15.73;;;7.60;99.90;;;;;;5048209;28;20071;-46
2020/12/16 02:19:06;;;;;;;24.42;16.50;;;7.70;99.90;;;;;;5046567;28;20025;-43
2020/12/16 02:21:33;;;;;;;22.00;14.75;;;7.60;99.90;;;;;;5046504;28;20021;-45
2020/12/16 02:24:10;;;;;;;23.15;16.10;;;7.60;99.90;;;;;;5030462;28;20029;-45
2020/12/16 02:26:38;;;;;;;23.23;14.25;;;7.60;99.90;;;;;;5046875;28;20053;-46
2020/12/16 02:29:04;;;;;;;22.80;15.05;;;7.70;99.90;;;;;;5048325;28;20469;-43
2020/12/16 02:31:33;;;;;;;24.23;14.98;;;7.60;99.90;;;;;;5048586;28;20059;-45
2020/12/16 02:34:00;;;;;;;20.25;14.27;;;7.70;99.90;;;;;;5030205;28;20464;-43
2020/12/16 02:36:25;;;;;;;19.83;14.77;;;7.60;99.90;;;;;;5030230;28;20032;-44
2020/12/16 02:38:51;;;;;;;28.40;17.95;;;7.60;99.90;;;;;;5048178;28;20021;-43
2020/12/16 02:41:24;;;;;;;23.75;15.43;;;7.60;99.90;;;;;;5048225;28;20017;-44
2020/12/16 02:43:50;;;;;;;20.23;14.85;;;7.60;99.90;;;;;;5048127;28;20025;-44
2020/12/16 02:46:16;;;;;;;20.63;12.88;;;7.60;99.90;;;;;;5048109;28;20025;-44
2020/12/16 02:48:41;;;;;;;22.33;14.30;;;7.60;99.90;;;;;;5047744;28;20025;-45
2020/12/16 02:51:07;;;;;;;22.60;15.25;;;7.60;99.90;;;;;;5048129;28;20029;-44
2020/12/16 02:53:33;;;;;;;23.85;14.13;;;7.60;99.90;;;;;;5048168;28;20074;-44
2020/12/16 02:55:58;;;;;;;19.27;13.52;;;7.60;99.90;;;;;;5047568;28;20390;-44
2020/12/16 02:58:24;;;;;;;22.75;14.43;;;7.60;99.90;;;;;;5045262;28;20025;-45
2020/12/16 03:00:53;;;;;;;22.65;13.82;;;7.60;99.90;;;;;;5028163;28;20033;-45
2020/12/16 03:03:19;;;;;;;19.48;13.25;;;7.60;99.90;;;;;;5048047;28;20021;-43
2020/12/16 03:05:44;;;;;;;18.73;12.77;;;7.50;99.90;;;;;;5045515;28;20036;-44
2020/12/16 03:08:11;;;;;;;22.02;13.48;;;7.60;99.90;;;;;;5048111;28;20041;-44
2020/12/16 03:10:37;;;;;;;21.00;13.63;;;7.50;99.90;;;;;;5047914;28;20108;-45
2020/12/16 03:13:04;;;;;;;23.90;14.75;;;7.60;99.90;;;;;;5046835;28;20039;-42
2020/12/16 03:15:29;;;;;;;23.60;14.27;;;7.50;99.90;;;;;;5047445;28;20173;-45
2020/12/16 03:17:55;;;;;;;22.75;15.02;;;7.50;99.90;;;;;;5047524;28;20021;-42
2020/12/16 03:20:21;;;;;;;23.05;14.50;;;7.60;99.90;;;;;;5047643;28;20029;-43
2020/12/16 03:22:46;;;;;;;23.27;14.65;;;7.50;99.90;;;;;;5048236;28;20036;-42
2020/12/16 03:25:12;;;;;;;21.42;13.98;;;7.50;99.90;;;;;;5049067;28;20057;-44
2020/12/16 03:27:38;;;;;;;26.10;14.75;;;7.50;99.90;;;;;;5052236;28;20762;-44
2020/12/16 03:30:05;;;;;;;20.25;13.30;;;7.50;99.90;;;;;;5052050;28;20103;-43
2020/12/16 03:32:30;;;;;;;20.63;13.80;;;7.50;99.90;;;;;;5052215;28;20017;-43
2020/12/16 03:34:56;;;;;;;22.83;14.60;;;7.50;99.90;;;;;;5051763;28;20025;-44
2020/12/16 03:37:21;;;;;;;25.52;13.65;;;7.50;99.90;;;;;;5052014;28;20020;-44
2020/12/16 03:39:47;;;;;;;20.92;13.88;;;7.50;99.90;;;;;;5051923;28;20056;-45
2020/12/16 03:42:13;;;;;;;19.83;13.20;;;7.50;99.90;;;;;;5052120;28;20444;-43
2020/12/16 03:44:38;;;;;;;21.08;13.30;;;7.50;99.90;;;;;;5051863;28;20025;-44
2020/12/16 03:47:04;;;;;;;19.38;12.60;;;7.50;99.90;;;;;;5034024;28;20488;-44
2020/12/16 03:49:29;;;;;;;19.33;11.63;;;7.50;99.90;;;;;;5051537;28;20389;-43
2020/12/16 03:51:56;;;;;;;29.55;13.35;;;7.50;99.90;;;;;;5051658;28;20040;-44
2020/12/16 03:54:25;;;;;;;22.83;12.45;;;7.50;99.90;;;;;;5052468;28;20490;-43
2020/12/16 03:56:51;;;;;;;21.08;12.50;;;7.50;99.90;;;;;;5051734;28;20043;-43
2020/12/16 03:59:17;;;;;;;18.85;13.65;;;7.50;99.90;;;;;;5052140;28;20036;-43
2020/12/16 04:01:43;;;;;;;15.45;10.90;;;7.50;99.90;;;;;;5051891;28;20032;-44
2020/12/16 04:04:09;;;;;;;17.20;11.50;;;7.50;99.90;;;;;;5051404;28;20029;-43
2020/12/16 04:06:35;;;;;;;17.20;11.73;;;7.40;99.90;;;;;;5033697;28;20053;-42
2020/12/16 04:09:00;;;;;;;18.25;11.43;;;7.50;99.90;;;;;;5051430;28;20048;-43
2020/12/16 04:11:26;;;;;;;17.85;10.88;;;7.50;99.90;;;;;;5051622;28;20021;-43
2020/12/16 04:13:52;;;;;;;18.70;11.57;;;7.50;99.90;;;;;;5051613;28;20615;-45
2020/12/16 04:16:21;;;;;;;18.17;10.98;;;7.50;99.90;;;;;;5033344;28;20117;-43
2020/12/16 04:18:48;;;;;;;17.52;10.27;;;7.50;99.90;;;;;;5051024;28;20021;-43
2020/12/16 04:21:15;;;;;;;15.30;10.20;;;7.40;99.90;;;;;;5050066;28;20060;-43
2020/12/16 04:23:41;;;;;;;16.42;11.20;;;7.40;99.90;;;;;;5051471;28;20017;-44
2020/12/16 04:26:07;;;;;;;18.10;10.75;;;7.40;99.90;;;;;;5050872;28;20070;-43
2020/12/16 04:28:33;;;;;;;18.02;10.75;;;7.40;99.90;;;;;;5050952;28;20036;-44
2020/12/16 04:31:00;;;;;;;17.70;10.82;;;7.40;99.90;;;;;;5051130;28;20491;-43
2020/12/16 04:33:26;;;;;;;15.73;10.35;;;7.40;99.90;;;;;;5051061;28;20423;-42
2020/12/16 04:35:51;;;;;;;18.10;10.63;;;7.40;99.90;;;;;;5050355;28;20025;-45
2020/12/16 04:38:17;;;;;;;19.38;10.82;;;7.40;99.90;;;;;;5033184;28;20096;-44
2020/12/16 04:40:43;;;;;;;16.23;10.18;;;7.40;99.90;;;;;;5051390;28;20021;-43
2020/12/16 04:43:11;;;;;;;17.05;10.85;;;7.40;99.90;;;;;;5050941;28;20107;-45
2020/12/16 04:45:40;;;;;;;21.58;11.68;;;7.40;99.90;;;;;;5050824;28;20025;-43
2020/12/16 04:48:06;;;;;;;20.27;14.15;;;7.40;99.90;;;;;;5050782;28;20481;-43
2020/12/16 04:50:32;;;;;;;23.25;12.60;;;7.40;99.90;;;;;;5050788;28;20021;-44
2020/12/16 04:53:02;;;;;;;25.17;14.07;;;7.40;99.90;;;;;;5050784;28;20033;-44
2020/12/16 04:55:29;;;;;;;22.45;13.48;;;7.40;99.90;;;;;;5032794;28;20083;-43
2020/12/16 04:57:54;;;;;;;17.77;12.00;;;7.40;99.90;;;;;;5050851;28;20029;-45
2020/12/16 05:00:22;;;;;;;23.52;15.50;;;7.40;99.90;;;;;;5050238;28;20023;-43
2020/12/16 05:02:59;;;;;;;21.08;12.95;;;7.40;99.90;;;;;;5050248;28;20503;-44
2020/12/16 05:05:25;;;;;;;24.77;14.50;;;7.40;99.90;;;;;;5050203;28;20486;-43
2020/12/16 05:07:51;;;;;;;22.63;13.27;;;7.40;99.90;;;;;;5050447;28;20059;-42
2020/12/16 05:10:32;;;;;;;22.60;13.00;;;7.40;99.90;;;;;;5050358;28;20060;-43
2020/12/16 05:13:09;;;;;;;21.77;12.85;;;7.40;99.90;;;;;;5050362;28;20033;-44
2020/12/16 05:15:35;;;;;;;;;;;7.40;99.90;;;;;;5049893;28;20079;-44
2020/12/16 05:18:04;;;;;;;20.90;12.10;;;7.40;99.90;;;;;;5049775;28;19904;-44
2020/12/16 05:20:30;;;;;;;19.88;12.55;;;7.40;99.90;;;;;;5050239;28;20116;-44
2020/12/16 05:23:01;;;;;;;22.85;13.77;;;7.40;99.90;;;;;;5050083;28;20021;-44
2020/12/16 05:25:27;;;;;;;22.80;11.95;;;7.40;99.90;;;;;;5049597;28;20025;-43
2020/12/16 05:27:53;;;;;;;24.15;13.23;;;7.40;99.90;;;;;;5049984;28;20513;-45
2020/12/16 05:30:19;;;;;;;20.38;12.77;;;7.40;99.90;;;;;;5049780;28;20056;-43
2020/12/16 05:32:46;;;;;;;19.42;12.93;;;7.40;99.90;;;;;;5049805;28;20066;-44
2020/12/16 05:35:29;;;;;;;22.30;13.45;;;7.40;99.90;;;;;;5049945;28;20032;-46
2020/12/16 05:38:10;;;;;;;26.00;14.52;;;7.40;99.90;;;;;;5049821;28;20557;-46
2020/12/16 05:40:40;;;;;;;23.27;15.07;;;7.40;99.90;;;;;;5049853;28;20025;-44
2020/12/16 05:43:07;;;;;;;24.48;14.48;;;7.40;99.90;;;;;;5049624;28;20025;-45
2020/12/16 05:45:40;;;;;;;25.35;15.82;;;7.40;99.90;;;;;;5049550;28;20079;-44
2020/12/16 05:48:09;;;;;;;22.10;14.23;;;7.40;99.90;;;;;;5048535;28;20021;-43
2020/12/16 05:50:35;;;;;;;22.88;13.35;;;7.40;99.90;;;;;;5049868;28;20070;-44
2020/12/16 05:53:15;;;;;;;24.42;14.25;;;7.40;99.90;;;;;;5049340;28;20033;-43
2020/12/16 05:55:41;;;;;;;21.65;12.45;;;7.40;99.90;;;;;;5049456;28;20024;-46
2020/12/16 05:58:11;;;;;;;27.55;15.32;;;7.40;99.90;;;;;;5049460;28;20036;-44
2020/12/16 06:00:55;;;;;;;26.75;15.45;;;7.40;99.90;;;;;;5049226;28;20444;-45
2020/12/16 06:03:39;;;;;;;25.85;16.15;;;7.40;99.90;;;;;;5049093;28;20588;-43
2020/12/16 06:06:06;;;;;;;24.90;13.07;;;7.40;99.90;;;;;;5036072;28;20048;-46
2020/12/16 06:08:43;;;;;;;24.08;13.85;;;7.40;99.90;;;;;;5049457;28;20021;-43
2020/12/16 06:11:13;;;;;;;25.67;15.05;;;7.40;99.90;;;;;;5049366;28;20029;-45
2020/12/16 06:13:46;;;;;;;28.25;16.50;;;7.40;99.90;;;;;;5049391;28;20027;-43
2020/12/16 06:16:11;;;;;;;23.52;13.48;;;7.40;99.90;;;;;;5048694;28;20028;-44
2020/12/16 06:18:47;;;;;;;27.58;14.93;;;7.40;99.90;;;;;;5048839;28;20017;-44
2020/12/16 06:21:14;;;;;;;22.73;14.30;;;7.40;99.90;;;;;;5048278;28;20045;-43
2020/12/16 06:23:40;;;;;;;19.83;13.88;;;7.40;99.90;;;;;;5048216;28;20387;-43
2020/12/16 06:26:17;;;;;;;23.60;13.77;;;7.40;99.90;;;;;;5048772;28;20095;-43
2020/12/16 06:28:44;;;;;;;25.90;15.52;;;7.40;99.90;;;;;;5048723;28;20101;-44
2020/12/16 06:31:30;;;;;;;23.13;13.82;;;7.40;99.90;;;;;;5031089;28;20021;-44
2020/12/16 06:34:04;;;;;;;20.77;13.38;;;7.40;99.90;;;;;;5049091;28;20021;-44
2020/12/16 06:36:41;;;;;;;22.38;13.88;;;7.40;99.90;;;;;;5048133;28;20057;-44
2020/12/16 06:39:21;;;;;;;25.80;15.10;;;7.40;99.90;;;;;;5048487;28;20043;-44
2020/12/16 06:41:58;;;;;;;22.67;14.05;;;7.40;99.90;;;;;;5035597;28;20086;-43
2020/12/16 06:44:25;;;;;;;26.02;15.00;;;7.40;99.90;;;;;;5048077;28;20021;-49
2020/12/16 06:46:52;;;;;;;24.17;14.75;;;7.40;99.90;;;;;;5048530;28;20025;-44
2020/12/16 06:49:24;;;;;;;28.98;17.63;;;7.40;99.90;;;;;;5047675;28;20506;-44
2020/12/16 06:52:08;;;;;;;22.83;14.38;;;7.40;99.90;;;;;;5048404;28;20108;-45
2020/12/16 06:54:41;;;;;;;25.77;16.08;;;7.40;99.90;;;;;;5049069;28;20106;-44
2020/12/16 06:57:16;;;;;;;24.52;15.40;;;7.40;99.90;;;;;;5048205;28;20056;-44
2020/12/16 06:59:44;;;;;;;27.48;16.20;;;7.40;99.90;;;;;;5047162;28;20024;-46
2020/12/16 07:02:12;;;;;;;29.05;16.88;;;7.40;99.90;;;;;;5029129;28;20502;-44
2020/12/16 07:04:37;;;;;;;22.23;14.50;;;7.40;99.90;;;;;;5034715;28;20031;-43
2020/12/16 07:07:03;;;;;;;26.75;16.38;;;7.50;99.90;;;;;;5041744;28;20017;-44
2020/12/16 07:09:34;;;;;;;28.75;16.45;;;7.40;99.90;;;;;;5040188;28;20083;-44
2020/12/16 07:12:01;;;;;;;26.90;16.88;;;7.40;99.90;;;;;;5040938;28;20394;-47
2020/12/16 07:14:35;;;;;;;26.38;15.48;;;7.40;99.90;;;;;;5047763;28;20438;-44
2020/12/16 07:17:09;;;;;;;24.10;15.27;;;7.40;99.90;;;;;;5048121;28;20079;-44
2020/12/16 07:19:35;;;;;;;23.77;14.55;;;7.40;99.90;;;;;;5048091;28;20017;-43
2020/12/16 07:22:20;;;;;;;24.27;15.55;;;7.40;99.90;;;;;;5047442;28;20451;-44
2020/12/16 07:24:50;;;;;;;24.30;13.88;;;7.40;99.90;;;;;;5047053;28;20399;-44
2020/12/16 07:27:20;;;;;;;25.60;14.93;;;7.40;99.90;;;;;;5047690;28;20094;-44
2020/12/16 07:29:59;;;;;;;21.85;14.18;;;7.40;99.90;;;;;;5047481;28;20021;-44
2020/12/16 07:32:26;;;;;;;26.88;16.00;;;7.40;99.90;;;;;;5047718;28;20440;-45
2020/12/16 07:34:57;;;;;;;31.60;17.65;;;7.40;99.90;;;;;;5047162;28;20110;-47
2020/12/16 07:37:30;;;;;;;25.70;16.98;;;7.40;99.90;;;;;;5046617;28;20032;-44
2020/12/16 07:39:59;;;;;;;30.65;18.60;;;7.30;99.90;;;;;;5046885;28;20070;-44
2020/12/16 07:42:32;;;;;;;28.55;17.65;;;7.40;99.90;;;;;;5046790;28;20028;-46
2020/12/16 07:45:00;;;;;;;25.50;16.27;;;7.40;99.90;;;;;;5046665;28;20521;-44
2020/12/16 07:47:26;;;;;;;34.22;18.27;;;7.40;99.90;;;;;;5047235;28;20025;-44
2020/12/16 07:49:52;;;;;;;31.58;19.08;;;7.40;99.90;;;;;;5046668;28;20074;-44
2020/12/16 07:52:29;;;;;;;32.05;18.17;;;7.40;99.90;;;;;;5046731;28;20033;-45
2020/12/16 07:54:55;;;;;;;;;;;7.40;99.90;;;;;;5047439;28;20045;-45
2020/12/16 07:57:32;;;;;;;32.08;18.73;;;7.40;99.90;;;;;;5046560;28;20058;-45
2020/12/16 07:59:58;;;;;;;27.98;16.63;;;7.40;99.90;;;;;;5046240;28;20044;-45
2020/12/16 08:02:24;;;;;;;30.92;17.63;;;7.40;99.90;;;;;;5046723;28;20382;-47
2020/12/16 08:04:57;;;;;;;34.28;19.27;;;7.40;99.90;;;;;;5043785;28;20021;-45
2020/12/16 08:07:23;;;;;;;35.88;19.70;;;7.40;99.90;;;;;;5046517;28;20127;-45
2020/12/16 08:10:01;;;;;;;36.45;20.27;;;7.40;99.90;;;;;;5046746;28;20025;-44
2020/12/16 08:12:29;;;;;;;36.13;19.42;;;7.40;99.90;;;;;;5048165;28;20017;-44
2020/12/16 08:15:26;;;;;;;35.05;19.73;;;7.50;99.90;;;;;;5049960;28;20033;-44
2020/12/16 08:17:52;;;;;;;31.88;19.83;;;7.50;99.90;;;;;;5032915;28;20040;-47
2020/12/16 08:20:23;;;;;;;31.88;17.80;;;7.50;99.90;;;;;;5031919;28;20411;-45
2020/12/16 08:22:57;;;;;;;36.05;20.77;;;7.50;99.90;;;;;;5048959;28;20016;-46
2020/12/16 08:25:23;;;;;;;32.38;19.33;;;7.50;99.90;;;;;;5050716;28;20017;-44
2020/12/16 08:27:54;;;;;;;32.88;18.10;;;7.50;99.90;;;;;;5032427;28;20021;-45
2020/12/16 08:30:22;;;;;;;34.75;19.88;;;7.50;99.90;;;;;;5047950;28;20100;-44
2020/12/16 08:33:01;;;;;;;40.67;23.13;;;7.50;99.90;;;;;;5048711;28;20029;-45
2020/12/16 08:35:32;;;;;;;36.72;21.35;;;7.50;99.90;;;;;;5050071;28;20016;-45
2020/12/16 08:38:10;;;;;;;35.05;19.98;;;7.60;99.90;;;;;;5050224;28;20021;-45
2020/12/16 08:40:44;;;;;;;35.75;20.20;;;7.50;99.90;;;;;;5050354;28;20063;-48
2020/12/16 08:43:21;;;;;;;33.85;18.67;;;7.50;99.90;;;;;;5032016;28;20113;-47
2020/12/16 08:45:48;;;;;;;30.73;18.77;;;7.50;99.90;;;;;;5041834;28;20029;-46
2020/12/16 08:48:14;;;;;;;32.75;21.00;;;7.40;99.90;;;;;;5047662;28;20083;-48
2020/12/16 08:50:40;;;;;;;30.90;18.48;;;7.40;99.90;;;;;;5050756;28;20021;-45
2020/12/16 08:53:06;;;;;;;32.08;18.80;;;7.40;99.90;;;;;;5032564;28;20052;-45
2020/12/16 08:55:39;;;;;;;33.63;20.10;;;7.40;99.90;;;;;;5050371;28;20044;-44
2020/12/16 08:58:05;;;;;;;33.08;20.40;;;7.40;99.90;;;;;;5050785;28;20036;-45
2020/12/16 09:00:36;;;;;;;32.55;18.77;;;7.40;99.90;;;;;;5050085;28;20055;-45
2020/12/16 09:03:12;;;;;;;34.42;20.92;;;7.40;99.90;;;;;;5050363;28;20013;-44
2020/12/16 09:05:39;;;;;;;39.97;21.10;;;7.40;99.90;;;;;;5041458;28;20110;-45
2020/12/16 09:08:09;;;;;;;41.10;22.40;;;7.40;99.90;;;;;;5050298;28;20029;-46
2020/12/16 09:10:35;;;;;;;40.47;22.17;;;7.40;99.90;;;;;;5050104;28;20025;-46
2020/12/16 09:13:18;;;;;;;36.05;21.77;;;7.50;99.90;;;;;;5050515;28;20100;-46
2020/12/16 09:15:50;;;;;;;38.40;21.92;;;7.50;99.90;;;;;;5041831;28;20785;-50
2020/12/16 09:18:27;;;;;;;32.00;19.75;;;7.50;99.90;;;;;;5050322;28;20487;-45
2020/12/16 09:20:53;;;;;;;32.47;20.38;;;7.50;99.90;;;;;;5046893;28;20024;-45
2020/12/16 09:23:27;;;;;;;36.33;20.58;;;7.50;99.90;;;;;;5049021;28;20027;-47
2020/12/16 09:25:55;;;;;;;32.33;19.85;;;7.50;99.90;;;;;;5048407;28;20059;-46
2020/12/16 09:28:31;;;;;;;36.15;19.48;;;7.50;99.90;;;;;;5050123;28;20491;-45
2020/12/16 09:31:09;;;;;;;35.88;19.92;;;7.50;99.90;;;;;;5049982;28;20024;-45
2020/12/16 09:33:35;;;;;;;30.85;19.00;;;7.50;99.90;;;;;;5050156;28;20518;-45
2020/12/16 09:36:00;;;;;;;31.20;18.42;;;7.50;99.90;;;;;;5049383;28;20028;-48
2020/12/16 09:38:26;;;;;;;30.27;17.15;;;7.50;99.90;;;;;;5050101;28;20017;-47
2020/12/16 09:40:58;;;;;;;35.00;18.02;;;7.50;99.90;;;;;;5049829;28;20067;-45
2020/12/16 09:43:40;;;;;;;30.55;18.23;;;7.40;99.90;;;;;;5049705;28;20021;-46
2020/12/16 09:46:24;;;;;;;26.77;17.05;;;7.40;99.90;;;;;;5048382;28;20025;-47
2020/12/16 09:48:58;;;;;;;30.95;18.05;;;7.40;99.90;;;;;;5041460;28;20021;-46
2020/12/16 09:51:24;;;;;;;30.90;17.45;;;7.40;99.90;;;;;;5041580;28;20025;-46
2020/12/16 09:53:50;;;;;;;28.33;17.13;;;7.40;99.90;;;;;;5049661;28;20052;-47
2020/12/16 09:56:28;;;;;;;28.90;17.42;;;7.40;99.90;;;;;;5049102;28;20101;-43
2020/12/16 09:58:54;;;;;;;23.58;16.10;;;7.40;99.90;;;;;;5046917;28;20538;-45
2020/12/16 10:01:21;;;;;;;31.15;17.60;;;7.40;99.90;;;;;;5049351;28;20475;-45
2020/12/16 10:03:50;;;;;;;27.63;17.10;;;7.40;99.90;;;;;;5025871;28;20024;-44
2020/12/16 10:06:16;;;;;;;30.60;15.85;;;7.30;99.90;;;;;;5048600;28;20025;-45
2020/12/16 10:08:43;;;;;;;27.40;17.38;;;7.30;99.90;;;;;;5048539;28;20104;-45
2020/12/16 10:11:12;;;;;;;26.80;15.80;;;7.30;99.90;;;;;;5049118;28;20032;-45
2020/12/16 10:13:39;;;;;;;27.83;15.82;;;7.30;99.90;;;;;;5048620;28;20027;-43
2020/12/16 10:16:05;;;;;;;26.83;16.73;;;7.30;99.90;;;;;;5048433;28;20028;-43
2020/12/16 10:18:30;;;;;;;27.55;16.65;;;7.40;99.90;;;;;;5048681;28;20021;-44
2020/12/16 10:20:56;;;;;;;27.40;16.73;;;7.40;99.90;;;;;;5048420;28;20127;-44
2020/12/16 10:23:21;;;;;;;33.38;17.20;;;7.40;99.90;;;;;;5048586;28;20025;-46
2020/12/16 10:25:47;;;;;;;30.73;16.92;;;7.30;99.90;;;;;;5048268;28;20112;-44
2020/12/16 10:28:12;;;;;;;30.80;17.70;;;7.30;99.90;;;;;;5048328;28;20032;-44
2020/12/16 10:30:38;;;;;;;28.00;16.52;;;7.30;99.90;;;;;;5049365;28;20530;-47
2020/12/16 10:33:04;;;;;;;25.88;16.02;;;7.30;99.90;;;;;;5048032;28;20029;-46
2020/12/16 10:35:30;;;;;;;26.98;16.70;;;7.40;99.90;;;;;;5041681;28;20055;-45
2020/12/16 10:37:55;;;;;;;29.58;17.52;;;7.30;99.90;;;;;;5043628;28;20033;-46
2020/12/16 10:40:21;;;;;;;25.88;15.65;;;7.30;99.90;;;;;;5048579;28;20378;-47
2020/12/16 10:42:47;;;;;;;29.10;17.13;;;7.30;99.90;;;;;;5044585;28;20495;-43
2020/12/16 10:45:13;;;;;;;25.98;16.48;;;7.30;99.90;;;;;;5048541;28;20052;-43
2020/12/16 10:47:40;;;;;;;28.20;16.08;;;7.30;99.90;;;;;;5031180;28;20438;-46
2020/12/16 10:50:05;;;;;;;27.75;16.92;;;7.30;99.90;;;;;;5048118;28;20052;-44
2020/12/16 10:52:31;;;;;;;32.40;16.80;;;7.40;99.90;;;;;;5048685;28;20435;-45
2020/12/16 10:54:56;;;;;;;33.35;17.95;;;7.40;99.90;;;;;;5048758;28;20103;-46
2020/12/16 10:57:22;;;;;;;31.73;17.42;;;7.40;99.90;;;;;;5048113;28;20052;-44
2020/12/16 10:59:48;;;;;;;31.98;19.25;;;7.40;99.90;;;;;;5048431;28;20023;-44
2020/12/16 11:02:14;;;;;;;30.15;17.23;;;7.40;99.90;;;;;;5048457;28;20172;-47
2020/12/16 11:04:39;;;;;;;35.30;17.63;;;7.40;99.90;;;;;;5047418;28;20703;-46
2020/12/16 11:07:05;;;;;;;27.60;15.93;;;7.40;99.90;;;;;;5048230;28;20039;-44
2020/12/16 11:09:30;;;;;;;28.40;15.52;;;7.40;99.90;;;;;;5048192;28;20021;-46
2020/12/16 11:11:56;;;;;;;33.28;18.88;;;7.40;99.90;;;;;;5048365;28;20112;-45
2020/12/16 11:14:25;;;;;;;31.63;17.42;;;7.40;99.90;;;;;;5048118;28;20044;-44
2020/12/16 11:16:51;;;;;;;32.85;17.83;;;7.40;99.90;;;;;;5048260;28;20025;-47
2020/12/16 11:19:17;;;;;;;32.67;18.20;;;7.40;99.90;;;;;;5030459;28;20442;-47
2020/12/16 11:21:45;;;;;;;33.45;18.33;;;7.50;99.90;;;;;;5048335;28;20025;-46
2020/12/16 11:24:12;;;;;;;30.85;16.63;;;7.50;99.90;;;;;;5048120;28;20045;-47
2020/12/16 11:26:46;;;;;;;35.80;19.85;;;7.50;99.90;;;;;;5047984;28;20036;-44
2020/12/16 11:29:13;;;;;;;34.22;18.55;;;7.40;99.90;;;;;;5048046;28;20399;-43
2020/12/16 11:31:50;;;;;;;33.75;17.23;;;7.50;99.90;;;;;;5048462;28;20479;-44
2020/12/16 11:34:18;;;;;;;35.60;18.70;;;7.50;99.90;;;;;;5048165;28;20151;-46
2020/12/16 11:36:45;;;;;;;33.95;19.67;;;7.50;99.90;;;;;;5046905;28;20017;-43
2020/12/16 11:39:12;;;;;;;29.88;18.48;;;7.60;99.90;;;;;;5047182;28;20028;-46
2020/12/16 11:41:42;;;;;;;33.67;20.50;;;7.60;99.90;;;;;;5047239;28;20669;-44
2020/12/16 11:44:08;;;;;;;38.53;20.58;;;7.60;99.90;;;;;;5044000;28;20033;-44
2020/12/16 11:46:33;;;;;;;39.63;20.58;;;7.60;99.90;;;;;;5049371;28;20032;-47
2020/12/16 11:49:00;;;;;;;39.10;20.08;;;7.60;99.90;;;;;;5051398;28;20017;-45
2020/12/16 11:51:26;;;;;;;40.22;21.08;;;7.60;99.90;;;;;;5051366;28;20017;-45
2020/12/16 11:53:52;;;;;;;42.67;21.73;;;7.60;99.90;;;;;;5051178;28;20678;-48
2020/12/16 11:56:18;;;;;;;41.13;23.50;;;7.70;99.90;;;;;;5051014;28;20072;-44
2020/12/16 11:58:44;;;;;;;45.63;21.85;;;7.70;99.90;;;;;;5051268;28;20051;-45
2020/12/16 12:01:11;;;;;;;44.78;23.00;;;7.70;99.90;;;;;;5050102;28;20059;-45
2020/12/16 12:03:37;;;;;;;41.22;22.88;;;7.70;99.90;;;;;;5050110;28;20021;-45
2020/12/16 12:06:03;;;;;;;40.25;22.35;;;7.70;99.90;;;;;;5050161;28;20049;-47
2020/12/16 12:08:29;;;;;;;45.80;23.30;;;7.80;99.90;;;;;;5050600;28;20060;-45
2020/12/16 12:10:54;;;;;;;44.95;24.73;;;7.70;99.90;;;;;;5015047;28;20483;-45
2020/12/16 12:13:20;;;;;;;39.15;22.95;;;7.80;99.90;;;;;;5049645;28;20024;-44
2020/12/16 12:15:45;;;;;;;39.95;22.25;;;7.80;99.90;;;;;;5047135;28;20033;-44
2020/12/16 12:18:11;;;;;;;40.45;22.70;;;7.80;99.90;;;;;;5049599;28;20105;-45
2020/12/16 12:20:37;;;;;;;41.78;20.52;;;7.80;99.90;;;;;;5042263;28;20035;-46
2020/12/16 12:23:02;;;;;;;39.20;20.67;;;7.80;99.90;;;;;;5046576;28;20506;-48
2020/12/16 12:25:28;;;;;;;39.75;21.05;;;7.80;99.90;;;;;;5049440;28;20414;-44
2020/12/16 12:27:53;;;;;;;34.47;20.35;;;7.80;99.90;;;;;;5050457;28;20021;-45
2020/12/16 12:30:19;;;;;;;32.42;19.40;;;7.80;99.90;;;;;;5048444;28;20099;-45
2020/12/16 12:32:44;;;;;;;32.13;17.88;;;7.70;99.90;;;;;;5047811;28;20399;-44
2020/12/16 12:35:10;;;;;;;36.60;19.17;;;7.70;99.90;;;;;;5050331;28;20070;-46
2020/12/16 12:37:36;;;;;;;35.53;18.85;;;7.70;99.90;;;;;;5049900;28;20041;-45
2020/12/16 12:40:02;;;;;;;35.33;18.23;;;7.70;99.90;;;;;;5050361;28;20021;-44
2020/12/16 12:42:27;;;;;;;35.75;20.00;;;7.70;99.90;;;;;;5050506;28;20025;-47
2020/12/16 12:44:53;;;;;;;35.03;19.65;;;7.70;99.90;;;;;;5049999;28;20028;-44